sensor_id;sensor_type;location;lat;lon;timestamp;temperature;humidity
41116;DHT22;26861;51.824;4.682;2023-04-16T00:03:13;18.90;80.30
41116;DHT22;26861;51.824;4.682;2023-04-16T00:05:39;18.70;80.30
41116;DHT22;26861;51.824;4.682;2023-04-16T00:08:04;18.70;72.50
41116;DHT22;26861;51.824;4.682;2023-04-16T00:39:42;18.80;79.80
41116;DHT22;26861;51.824;4.682;2023-04-16T00:42:07;18.90;80.20
41116;DHT22;26861;51.824;4.682;2023-04-16T00:44:33;18.60;79.90
41116;DHT22;26861;51.824;4.682;2023-04-16T00:47:02;18.60;80.50
41116;DHT22;26861;51.824;4.682;2023-04-16T00:49:28;18.60;47.80
41116;DHT22;26861;51.824;4.682;2023-04-16T00:51:55;18.70;80.10
41116;DHT22;26861;51.824;4.682;2023-04-16T00:54:21;18.80;80.40
41116;DHT22;26861;51.824;4.682;2023-04-16T00:59:12;18.60;80.50
41116;DHT22;26861;51.824;4.682;2023-04-16T01:06:31;18.60;80.80
41116;DHT22;26861;51.824;4.682;2023-04-16T01:08:57;18.30;80.60
41116;DHT22;26861;51.824;4.682;2023-04-16T01:11:23;18.70;75.50
41116;DHT22;26861;51.824;4.682;2023-04-16T01:18:40;18.50;65.00
41116;DHT22;26861;51.824;4.682;2023-04-16T01:25:58;18.60;80.20
41116;DHT22;26861;51.824;4.682;2023-04-16T01:28:24;18.30;80.00
41116;DHT22;26861;51.824;4.682;2023-04-16T01:33:17;18.60;80.50
41116;DHT22;26861;51.824;4.682;2023-04-16T01:35:43;18.50;80.20
41116;DHT22;26861;51.824;4.682;2023-04-16T01:38:09;18.00;79.50
41116;DHT22;26861;51.824;4.682;2023-04-16T01:40:36;18.40;49.70
41116;DHT22;26861;51.824;4.682;2023-04-16T01:43:02;18.40;80.80
41116;DHT22;26861;51.824;4.682;2023-04-16T01:47:54;18.20;81.00
41116;DHT22;26861;51.824;4.682;2023-04-16T01:50:20;18.40;81.00
41116;DHT22;26861;51.824;4.682;2023-04-16T01:52:46;18.40;56.30
41116;DHT22;26861;51.824;4.682;2023-04-16T01:55:12;18.10;80.80
41116;DHT22;26861;51.824;4.682;2023-04-16T01:57:38;18.30;80.80
41116;DHT22;26861;51.824;4.682;2023-04-16T02:00:04;18.20;80.80
41116;DHT22;26861;51.824;4.682;2023-04-16T02:02:29;18.30;81.00
41116;DHT22;26861;51.824;4.682;2023-04-16T02:04:56;18.10;80.70
41116;DHT22;26861;51.824;4.682;2023-04-16T02:07:22;18.40;80.70
41116;DHT22;26861;51.824;4.682;2023-04-16T02:12:15;18.00;80.60
41116;DHT22;26861;51.824;4.682;2023-04-16T02:14:41;18.20;80.70
41116;DHT22;26861;51.824;4.682;2023-04-16T02:17:07;17.90;80.70
41116;DHT22;26861;51.824;4.682;2023-04-16T02:21:59;18.40;80.60
41116;DHT22;26861;51.824;4.682;2023-04-16T02:24:26;18.10;80.80
41116;DHT22;26861;51.824;4.682;2023-04-16T02:34:10;18.20;74.50
41116;DHT22;26861;51.824;4.682;2023-04-16T02:36:36;18.40;80.10
41116;DHT22;26861;51.824;4.682;2023-04-16T02:39:02;18.30;81.20
41116;DHT22;26861;51.824;4.682;2023-04-16T02:41:27;18.20;81.20
41116;DHT22;26861;51.824;4.682;2023-04-16T02:43:53;18.10;81.20
41116;DHT22;26861;51.824;4.682;2023-04-16T02:46:19;17.90;81.20
41116;DHT22;26861;51.824;4.682;2023-04-16T02:48:44;18.00;69.60
41116;DHT22;26861;51.824;4.682;2023-04-16T02:53:36;18.20;80.30
41116;DHT22;26861;51.824;4.682;2023-04-16T02:56:01;18.10;80.90
41116;DHT22;26861;51.824;4.682;2023-04-16T02:58:27;18.00;80.60
41116;DHT22;26861;51.824;4.682;2023-04-16T03:00:53;18.00;80.80
41116;DHT22;26861;51.824;4.682;2023-04-16T03:03:19;17.90;80.80
41116;DHT22;26861;51.824;4.682;2023-04-16T03:05:46;18.10;60.30
41116;DHT22;26861;51.824;4.682;2023-04-16T03:08:12;17.90;81.10
41116;DHT22;26861;51.824;4.682;2023-04-16T03:10:37;17.90;80.80
41116;DHT22;26861;51.824;4.682;2023-04-16T03:13:03;17.90;80.90
41116;DHT22;26861;51.824;4.682;2023-04-16T03:15:29;17.90;81.30
41116;DHT22;26861;51.824;4.682;2023-04-16T03:20:21;18.10;82.10
41116;DHT22;26861;51.824;4.682;2023-04-16T03:22:47;17.60;70.50
41116;DHT22;26861;51.824;4.682;2023-04-16T03:27:39;18.10;68.40
41116;DHT22;26861;51.824;4.682;2023-04-16T03:30:10;18.10;78.00
41116;DHT22;26861;51.824;4.682;2023-04-16T03:35:03;17.80;57.00
41116;DHT22;26861;51.824;4.682;2023-04-16T03:37:29;18.00;81.80
41116;DHT22;26861;51.824;4.682;2023-04-16T03:39:55;17.80;81.80
41116;DHT22;26861;51.824;4.682;2023-04-16T03:42:20;17.80;59.90
41116;DHT22;26861;51.824;4.682;2023-04-16T03:52:04;18.00;81.80
41116;DHT22;26861;51.824;4.682;2023-04-16T03:54:29;17.90;81.50
41116;DHT22;26861;51.824;4.682;2023-04-16T03:56:55;17.80;81.90
41116;DHT22;26861;51.824;4.682;2023-04-16T03:59:21;18.00;82.10
41116;DHT22;26861;51.824;4.682;2023-04-16T04:01:47;18.00;60.60
41116;DHT22;26861;51.824;4.682;2023-04-16T04:04:12;18.00;72.40
41116;DHT22;26861;51.824;4.682;2023-04-16T04:06:39;17.40;82.10
41116;DHT22;26861;51.824;4.682;2023-04-16T04:09:05;17.60;81.80
41116;DHT22;26861;51.824;4.682;2023-04-16T04:11:31;17.60;80.30
41116;DHT22;26861;51.824;4.682;2023-04-16T04:23:40;17.80;66.90
41116;DHT22;26861;51.824;4.682;2023-04-16T04:28:34;17.90;82.20
41116;DHT22;26861;51.824;4.682;2023-04-16T04:31:00;17.90;82.00
41116;DHT22;26861;51.824;4.682;2023-04-16T04:33:27;17.60;81.60
41116;DHT22;26861;51.824;4.682;2023-04-16T04:35:53;17.70;66.90
41116;DHT22;26861;51.824;4.682;2023-04-16T04:38:19;17.80;81.60
41116;DHT22;26861;51.824;4.682;2023-04-16T04:48:05;17.80;57.90
41116;DHT22;26861;51.824;4.682;2023-04-16T04:52:56;17.80;81.90
41116;DHT22;26861;51.824;4.682;2023-04-16T04:57:48;17.70;81.10
41116;DHT22;26861;51.824;4.682;2023-04-16T05:05:07;17.80;62.40
41116;DHT22;26861;51.824;4.682;2023-04-16T05:09:58;17.70;81.40
41116;DHT22;26861;51.824;4.682;2023-04-16T05:12:24;17.40;81.20
41116;DHT22;26861;51.824;4.682;2023-04-16T05:17:16;17.70;50.70
41116;DHT22;26861;51.824;4.682;2023-04-16T05:19:42;17.70;81.60
41116;DHT22;26861;51.824;4.682;2023-04-16T05:22:07;17.20;82.40
41116;DHT22;26861;51.824;4.682;2023-04-16T05:24:33;17.70;83.20
41116;DHT22;26861;51.824;4.682;2023-04-16T05:26:59;17.50;80.70
41116;DHT22;26861;51.824;4.682;2023-04-16T05:29:24;17.60;80.70
41116;DHT22;26861;51.824;4.682;2023-04-16T05:36:42;17.70;81.80
41116;DHT22;26861;51.824;4.682;2023-04-16T05:39:07;17.30;82.10
41116;DHT22;26861;51.824;4.682;2023-04-16T05:41:33;17.40;81.60
41116;DHT22;26861;51.824;4.682;2023-04-16T05:43:59;17.60;81.40
41116;DHT22;26861;51.824;4.682;2023-04-16T05:46:24;17.60;72.20
41116;DHT22;26861;51.824;4.682;2023-04-16T05:58:35;17.60;81.00
41116;DHT22;26861;51.824;4.682;2023-04-16T06:01:00;17.60;52.90
41116;DHT22;26861;51.824;4.682;2023-04-16T06:08:18;17.40;83.20
41116;DHT22;26861;51.824;4.682;2023-04-16T06:10:47;17.30;83.40
41116;DHT22;26861;51.824;4.682;2023-04-16T06:15:39;17.10;82.80
41116;DHT22;26861;51.824;4.682;2023-04-16T06:18:04;17.50;62.00
41116;DHT22;26861;51.824;4.682;2023-04-16T06:20:30;17.20;81.90
41116;DHT22;26861;51.824;4.682;2023-04-16T06:22:56;17.30;83.40
41116;DHT22;26861;51.824;4.682;2023-04-16T06:25:22;17.60;84.20
41116;DHT22;26861;51.824;4.682;2023-04-16T06:27:47;17.40;83.80
41116;DHT22;26861;51.824;4.682;2023-04-16T06:30:14;17.30;84.10
41116;DHT22;26861;51.824;4.682;2023-04-16T06:32:41;18.10;53.60
41116;DHT22;26861;51.824;4.682;2023-04-16T06:35:07;17.30;84.00
41116;DHT22;26861;51.824;4.682;2023-04-16T06:37:33;17.30;84.50
41116;DHT22;26861;51.824;4.682;2023-04-16T06:39:59;17.50;64.40
41116;DHT22;26861;51.824;4.682;2023-04-16T06:42:25;17.30;71.60
41116;DHT22;26861;51.824;4.682;2023-04-16T06:47:16;17.40;82.20
41116;DHT22;26861;51.824;4.682;2023-04-16T06:54:35;16.90;83.00
41116;DHT22;26861;51.824;4.682;2023-04-16T06:57:00;17.40;76.50
41116;DHT22;26861;51.824;4.682;2023-04-16T06:59:26;17.50;83.10
41116;DHT22;26861;51.824;4.682;2023-04-16T07:01:52;17.50;82.40
41116;DHT22;26861;51.824;4.682;2023-04-16T07:04:17;17.30;82.70
41116;DHT22;26861;51.824;4.682;2023-04-16T07:09:09;17.40;82.80
41116;DHT22;26861;51.824;4.682;2023-04-16T07:11:34;17.50;83.30
41116;DHT22;26861;51.824;4.682;2023-04-16T07:23:45;17.40;77.60
41116;DHT22;26861;51.824;4.682;2023-04-16T07:26:11;17.50;84.20
41116;DHT22;26861;51.824;4.682;2023-04-16T07:35:54;17.40;70.50
41116;DHT22;26861;51.824;4.682;2023-04-16T07:38:20;17.50;83.80
41116;DHT22;26861;51.824;4.682;2023-04-16T07:40:46;17.40;83.60
41116;DHT22;26861;51.824;4.682;2023-04-16T07:43:12;17.10;83.90
41116;DHT22;26861;51.824;4.682;2023-04-16T07:45:39;16.90;83.50
41116;DHT22;26861;51.824;4.682;2023-04-16T07:50:31;17.10;83.00
41116;DHT22;26861;51.824;4.682;2023-04-16T07:52:57;17.40;82.90
41116;DHT22;26861;51.824;4.682;2023-04-16T07:55:23;17.20;82.80
41116;DHT22;26861;51.824;4.682;2023-04-16T08:00:17;17.50;82.80
41116;DHT22;26861;51.824;4.682;2023-04-16T08:02:43;17.40;83.50
41116;DHT22;26861;51.824;4.682;2023-04-16T08:05:09;17.30;84.30
41116;DHT22;26861;51.824;4.682;2023-04-16T08:07:35;17.50;83.80
41116;DHT22;26861;51.824;4.682;2023-04-16T08:10:01;17.40;83.40
41116;DHT22;26861;51.824;4.682;2023-04-16T08:12:28;17.40;83.60
41116;DHT22;26861;51.824;4.682;2023-04-16T08:22:13;17.30;82.30
41116;DHT22;26861;51.824;4.682;2023-04-16T08:24:39;17.40;81.20
41116;DHT22;26861;51.824;4.682;2023-04-16T08:27:04;17.50;61.80
41116;DHT22;26861;51.824;4.682;2023-04-16T08:29:30;17.40;84.80
41116;DHT22;26861;51.824;4.682;2023-04-16T08:41:42;17.40;53.50
41116;DHT22;26861;51.824;4.682;2023-04-16T08:44:13;17.40;53.50
41116;DHT22;26861;51.824;4.682;2023-04-16T08:46:43;17.50;78.00
41116;DHT22;26861;51.824;4.682;2023-04-16T08:49:15;17.60;84.40
41116;DHT22;26861;51.824;4.682;2023-04-16T08:51:44;17.40;53.70
41116;DHT22;26861;51.824;4.682;2023-04-16T08:57:05;17.50;84.90
41116;DHT22;26861;51.824;4.682;2023-04-16T08:59:31;17.20;54.30
41116;DHT22;26861;51.824;4.682;2023-04-16T09:04:27;17.20;58.60
41116;DHT22;26861;51.824;4.682;2023-04-16T09:06:55;17.20;81.80
41116;DHT22;26861;51.824;4.682;2023-04-16T09:09:22;17.40;82.00
41116;DHT22;26861;51.824;4.682;2023-04-16T09:11:51;17.50;77.80
41116;DHT22;26861;51.824;4.682;2023-04-16T09:14:17;17.40;50.00
41116;DHT22;26861;51.824;4.682;2023-04-16T09:16:45;17.10;81.40
41116;DHT22;26861;51.824;4.682;2023-04-16T09:19:12;17.30;82.20
41116;DHT22;26861;51.824;4.682;2023-04-16T09:21:40;17.70;81.70
41116;DHT22;26861;51.824;4.682;2023-04-16T09:24:10;17.40;81.70
41116;DHT22;26861;51.824;4.682;2023-04-16T09:26:35;17.70;82.00
41116;DHT22;26861;51.824;4.682;2023-04-16T09:29:02;17.30;81.60
41116;DHT22;26861;51.824;4.682;2023-04-16T09:34:04;17.50;50.90
41116;DHT22;26861;51.824;4.682;2023-04-16T09:36:31;17.50;59.70
41116;DHT22;26861;51.824;4.682;2023-04-16T09:38:57;17.50;50.70
41116;DHT22;26861;51.824;4.682;2023-04-16T09:41:27;17.70;83.60
41116;DHT22;26861;51.824;4.682;2023-04-16T09:43:55;17.30;82.80
41116;DHT22;26861;51.824;4.682;2023-04-16T09:46:22;17.30;69.00
41116;DHT22;26861;51.824;4.682;2023-04-16T09:53:40;17.50;83.00
41116;DHT22;26861;51.824;4.682;2023-04-16T09:56:06;17.60;81.50
41116;DHT22;26861;51.824;4.682;2023-04-16T09:58:34;17.60;81.50
41116;DHT22;26861;51.824;4.682;2023-04-16T10:01:11;17.50;48.40
41116;DHT22;26861;51.824;4.682;2023-04-16T10:03:38;17.50;81.20
41116;DHT22;26861;51.824;4.682;2023-04-16T10:06:18;17.50;81.40
41116;DHT22;26861;51.824;4.682;2023-04-16T10:08:51;17.50;83.10
41116;DHT22;26861;51.824;4.682;2023-04-16T10:11:19;17.70;82.90
41116;DHT22;26861;51.824;4.682;2023-04-16T10:16:11;17.40;59.60
41116;DHT22;26861;51.824;4.682;2023-04-16T10:18:40;17.70;83.70
41116;DHT22;26861;51.824;4.682;2023-04-16T10:21:06;17.70;83.20
41116;DHT22;26861;51.824;4.682;2023-04-16T10:26:00;16.70;51.80
41116;DHT22;26861;51.824;4.682;2023-04-16T10:28:26;17.50;83.00
41116;DHT22;26861;51.824;4.682;2023-04-16T10:30:55;17.50;71.60
41116;DHT22;26861;51.824;4.682;2023-04-16T10:33:26;17.60;78.50
41116;DHT22;26861;51.824;4.682;2023-04-16T10:36:15;17.70;83.30
41116;DHT22;26861;51.824;4.682;2023-04-16T10:38:46;17.30;83.10
41116;DHT22;26861;51.824;4.682;2023-04-16T10:41:12;17.60;83.40
41116;DHT22;26861;51.824;4.682;2023-04-16T10:43:49;17.50;52.10
41116;DHT22;26861;51.824;4.682;2023-04-16T10:46:22;17.60;82.40
41116;DHT22;26861;51.824;4.682;2023-04-16T10:48:51;17.60;58.90
41116;DHT22;26861;51.824;4.682;2023-04-16T10:51:34;17.40;57.90
41116;DHT22;26861;51.824;4.682;2023-04-16T10:56:37;17.40;61.80
41116;DHT22;26861;51.824;4.682;2023-04-16T10:59:06;17.50;49.00
41116;DHT22;26861;51.824;4.682;2023-04-16T11:01:42;17.10;83.40
41116;DHT22;26861;51.824;4.682;2023-04-16T11:09:57;16.20;48.60
41116;DHT22;26861;51.824;4.682;2023-04-16T11:12:38;17.30;52.80
41116;DHT22;26861;51.824;4.682;2023-04-16T11:15:06;17.40;81.30
41116;DHT22;26861;51.824;4.682;2023-04-16T11:17:46;17.60;49.40
41116;DHT22;26861;51.824;4.682;2023-04-16T11:20:16;17.50;49.30
41116;DHT22;26861;51.824;4.682;2023-04-16T11:22:42;17.40;54.10
41116;DHT22;26861;51.824;4.682;2023-04-16T11:25:10;17.50;51.50
41116;DHT22;26861;51.824;4.682;2023-04-16T11:30:04;17.60;52.40
41116;DHT22;26861;51.824;4.682;2023-04-16T11:32:35;17.50;52.80
41116;DHT22;26861;51.824;4.682;2023-04-16T11:35:03;17.80;83.70
41116;DHT22;26861;51.824;4.682;2023-04-16T11:37:37;17.60;49.40
41116;DHT22;26861;51.824;4.682;2023-04-16T11:40:05;17.60;52.00
41116;DHT22;26861;51.824;4.682;2023-04-16T11:42:31;17.50;83.60
41116;DHT22;26861;51.824;4.682;2023-04-16T11:44:58;17.50;83.80
41116;DHT22;26861;51.824;4.682;2023-04-16T11:47:28;17.20;83.50
41116;DHT22;26861;51.824;4.682;2023-04-16T11:49:54;17.20;83.70
41116;DHT22;26861;51.824;4.682;2023-04-16T11:52:30;17.40;83.90
41116;DHT22;26861;51.824;4.682;2023-04-16T11:54:58;17.60;52.90
41116;DHT22;26861;51.824;4.682;2023-04-16T11:57:29;17.20;83.80
41116;DHT22;26861;51.824;4.682;2023-04-16T11:59:58;17.30;83.10
41116;DHT22;26861;51.824;4.682;2023-04-16T12:02:37;17.40;83.50
41116;DHT22;26861;51.824;4.682;2023-04-16T12:05:06;17.60;52.70
41116;DHT22;26861;51.824;4.682;2023-04-16T12:07:43;17.50;49.60
41116;DHT22;26861;51.824;4.682;2023-04-16T12:10:10;20.10;52.40
41116;DHT22;26861;51.824;4.682;2023-04-16T12:12:37;17.70;64.60
41116;DHT22;26861;51.824;4.682;2023-04-16T12:15:03;17.10;52.20
41116;DHT22;26861;51.824;4.682;2023-04-16T12:17:31;17.60;52.90
41116;DHT22;26861;51.824;4.682;2023-04-16T12:19:59;17.80;84.30
41116;DHT22;26861;51.824;4.682;2023-04-16T12:22:30;17.50;69.70
41116;DHT22;26861;51.824;4.682;2023-04-16T12:25:16;17.50;62.50
41116;DHT22;26861;51.824;4.682;2023-04-16T12:27:44;17.60;53.00
41116;DHT22;26861;51.824;4.682;2023-04-16T12:30:11;17.50;56.40
41116;DHT22;26861;51.824;4.682;2023-04-16T12:32:37;17.50;83.30
41116;DHT22;26861;51.824;4.682;2023-04-16T12:35:03;17.60;81.00
41116;DHT22;26861;51.824;4.682;2023-04-16T12:37:29;17.80;83.20
41116;DHT22;26861;51.824;4.682;2023-04-16T12:47:14;17.70;83.20
41116;DHT22;26861;51.824;4.682;2023-04-16T12:49:40;17.90;83.20
41116;DHT22;26861;51.824;4.682;2023-04-16T12:52:05;17.70;83.20
41116;DHT22;26861;51.824;4.682;2023-04-16T12:54:31;17.90;83.50
41116;DHT22;26861;51.824;4.682;2023-04-16T12:56:57;17.70;83.90
41116;DHT22;26861;51.824;4.682;2023-04-16T12:59:23;17.70;84.00
41116;DHT22;26861;51.824;4.682;2023-04-16T13:01:49;17.80;84.00
41116;DHT22;26861;51.824;4.682;2023-04-16T13:04:15;17.80;83.60
41116;DHT22;26861;51.824;4.682;2023-04-16T13:06:44;17.80;71.40
41116;DHT22;26861;51.824;4.682;2023-04-16T13:09:10;17.70;53.10
41116;DHT22;26861;51.824;4.682;2023-04-16T13:16:29;17.70;84.90
41116;DHT22;26861;51.824;4.682;2023-04-16T13:18:55;17.60;85.10
41116;DHT22;26861;51.824;4.682;2023-04-16T13:21:21;17.80;85.00
41116;DHT22;26861;51.824;4.682;2023-04-16T13:26:15;17.60;65.20
41116;DHT22;26861;51.824;4.682;2023-04-16T13:28:42;17.70;85.40
41116;DHT22;26861;51.824;4.682;2023-04-16T13:31:08;17.50;85.40
41116;DHT22;26861;51.824;4.682;2023-04-16T13:33:34;17.20;84.90
41116;DHT22;26861;51.824;4.682;2023-04-16T13:36:00;17.50;85.10
41116;DHT22;26861;51.824;4.682;2023-04-16T13:38:26;17.90;85.30
41116;DHT22;26861;51.824;4.682;2023-04-16T13:40:52;17.40;85.10
41116;DHT22;26861;51.824;4.682;2023-04-16T13:43:40;17.70;50.20
41116;DHT22;26861;51.824;4.682;2023-04-16T13:46:06;17.70;85.60
41116;DHT22;26861;51.824;4.682;2023-04-16T13:48:32;17.20;84.60
41116;DHT22;26861;51.824;4.682;2023-04-16T13:50:58;17.60;84.80
41116;DHT22;26861;51.824;4.682;2023-04-16T13:58:17;17.60;70.40
41116;DHT22;26861;51.824;4.682;2023-04-16T14:00:43;17.70;73.20
41116;DHT22;26861;51.824;4.682;2023-04-16T14:05:35;17.60;85.20
41116;DHT22;26861;51.824;4.682;2023-04-16T14:08:01;17.90;87.00
41116;DHT22;26861;51.824;4.682;2023-04-16T14:10:27;17.80;86.90
41116;DHT22;26861;51.824;4.682;2023-04-16T14:12:54;17.80;86.70
41116;DHT22;26861;51.824;4.682;2023-04-16T14:15:20;18.00;86.50
41116;DHT22;26861;51.824;4.682;2023-04-16T14:20:12;17.80;86.90
41116;DHT22;26861;51.824;4.682;2023-04-16T14:25:07;18.00;76.90
41116;DHT22;26861;51.824;4.682;2023-04-16T14:27:33;17.90;86.90
41116;DHT22;26861;51.824;4.682;2023-04-16T14:29:59;18.00;87.10
41116;DHT22;26861;51.824;4.682;2023-04-16T14:32:25;18.00;87.10
41116;DHT22;26861;51.824;4.682;2023-04-16T14:34:51;17.80;65.00
41116;DHT22;26861;51.824;4.682;2023-04-16T14:39:44;17.70;86.70
41116;DHT22;26861;51.824;4.682;2023-04-16T14:42:09;17.80;87.00
41116;DHT22;26861;51.824;4.682;2023-04-16T14:49:27;18.00;87.10
41116;DHT22;26861;51.824;4.682;2023-04-16T14:51:53;17.70;79.60
41116;DHT22;26861;51.824;4.682;2023-04-16T14:54:19;18.20;61.50
41116;DHT22;26861;51.824;4.682;2023-04-16T14:56:45;18.00;55.80
41116;DHT22;26861;51.824;4.682;2023-04-16T14:59:11;17.70;86.70
41116;DHT22;26861;51.824;4.682;2023-04-16T15:01:37;17.60;66.10
41116;DHT22;26861;51.824;4.682;2023-04-16T15:06:33;18.00;75.90
41116;DHT22;26861;51.824;4.682;2023-04-16T15:08:59;17.80;86.50
41116;DHT22;26861;51.824;4.682;2023-04-16T15:11:25;17.80;75.00
41116;DHT22;26861;51.824;4.682;2023-04-16T15:16:17;17.60;82.50
41116;DHT22;26861;51.824;4.682;2023-04-16T15:21:09;18.00;64.20
41116;DHT22;26861;51.824;4.682;2023-04-16T15:26:01;17.90;61.50
41116;DHT22;26861;51.824;4.682;2023-04-16T15:33:21;17.80;50.90
41116;DHT22;26861;51.824;4.682;2023-04-16T15:38:13;17.80;81.60
41116;DHT22;26861;51.824;4.682;2023-04-16T15:40:40;16.00;51.20
41116;DHT22;26861;51.824;4.682;2023-04-16T15:43:05;18.00;82.70
41116;DHT22;26861;51.824;4.682;2023-04-16T15:45:31;18.00;82.30
41116;DHT22;26861;51.824;4.682;2023-04-16T15:47:57;17.80;69.50
41116;DHT22;26861;51.824;4.682;2023-04-16T15:50:24;17.80;53.40
41116;DHT22;26861;51.824;4.682;2023-04-16T15:52:50;17.60;83.40
41116;DHT22;26861;51.824;4.682;2023-04-16T15:55:16;17.70;81.40
41116;DHT22;26861;51.824;4.682;2023-04-16T16:00:09;17.40;80.90
41116;DHT22;26861;51.824;4.682;2023-04-16T16:02:39;17.80;51.50
41116;DHT22;26861;51.824;4.682;2023-04-16T16:05:07;18.00;81.20
41116;DHT22;26861;51.824;4.682;2023-04-16T16:07:33;17.80;80.60
41116;DHT22;26861;51.824;4.682;2023-04-16T16:09:59;17.90;80.40
41116;DHT22;26861;51.824;4.682;2023-04-16T16:12:25;17.40;80.10
41116;DHT22;26861;51.824;4.682;2023-04-16T16:17:17;17.80;78.60
41116;DHT22;26861;51.824;4.682;2023-04-16T16:19:44;17.60;78.80
41116;DHT22;26861;51.824;4.682;2023-04-16T16:24:37;17.90;80.50
41116;DHT22;26861;51.824;4.682;2023-04-16T16:27:03;17.70;80.30
41116;DHT22;26861;51.824;4.682;2023-04-16T16:29:29;17.90;80.10
41116;DHT22;26861;51.824;4.682;2023-04-16T16:31:55;17.80;60.80
41116;DHT22;26861;51.824;4.682;2023-04-16T16:36:47;17.40;80.60
41116;DHT22;26861;51.824;4.682;2023-04-16T16:44:07;17.90;81.40
41116;DHT22;26861;51.824;4.682;2023-04-16T16:46:33;17.80;81.30
41116;DHT22;26861;51.824;4.682;2023-04-16T16:56:18;17.90;64.80
41116;DHT22;26861;51.824;4.682;2023-04-16T16:58:43;17.70;60.90
41116;DHT22;26861;51.824;4.682;2023-04-16T17:01:09;17.70;70.10
41116;DHT22;26861;51.824;4.682;2023-04-16T17:06:01;17.60;71.20
41116;DHT22;26861;51.824;4.682;2023-04-16T17:08:27;17.90;82.30
41116;DHT22;26861;51.824;4.682;2023-04-16T17:10:53;17.80;81.70
41116;DHT22;26861;51.824;4.682;2023-04-16T17:15:45;17.30;85.60
41116;DHT22;26861;51.824;4.682;2023-04-16T17:18:12;17.60;80.10
41116;DHT22;26861;51.824;4.682;2023-04-16T17:23:05;17.50;83.80
41116;DHT22;26861;51.824;4.682;2023-04-16T17:25:31;17.90;84.10
41116;DHT22;26861;51.824;4.682;2023-04-16T17:27:57;17.40;83.60
41116;DHT22;26861;51.824;4.682;2023-04-16T17:30:23;17.40;84.20
41116;DHT22;26861;51.824;4.682;2023-04-16T17:32:50;17.50;84.00
41116;DHT22;26861;51.824;4.682;2023-04-16T17:35:15;17.80;84.10
41116;DHT22;26861;51.824;4.682;2023-04-16T17:37:41;17.60;84.00
41116;DHT22;26861;51.824;4.682;2023-04-16T17:40:07;17.70;84.30
41116;DHT22;26861;51.824;4.682;2023-04-16T17:42:35;17.60;52.50
41116;DHT22;26861;51.824;4.682;2023-04-16T17:45:01;17.60;85.80
41116;DHT22;26861;51.824;4.682;2023-04-16T17:47:28;17.70;85.30
41116;DHT22;26861;51.824;4.682;2023-04-16T17:49:54;17.70;84.90
41116;DHT22;26861;51.824;4.682;2023-04-16T17:52:21;17.60;84.80
41116;DHT22;26861;51.824;4.682;2023-04-16T17:54:47;17.60;84.80
41116;DHT22;26861;51.824;4.682;2023-04-16T17:57:13;17.40;84.40
41116;DHT22;26861;51.824;4.682;2023-04-16T18:02:07;17.70;84.90
41116;DHT22;26861;51.824;4.682;2023-04-16T18:06:59;17.50;85.40
41116;DHT22;26861;51.824;4.682;2023-04-16T18:09:25;17.60;68.50
41116;DHT22;26861;51.824;4.682;2023-04-16T18:11:50;17.60;85.20
41116;DHT22;26861;51.824;4.682;2023-04-16T18:14:16;17.70;84.90
41116;DHT22;26861;51.824;4.682;2023-04-16T18:16:47;17.50;83.90
41116;DHT22;26861;51.824;4.682;2023-04-16T18:19:14;17.20;84.70
41116;DHT22;26861;51.824;4.682;2023-04-16T18:21:40;17.50;85.10
41116;DHT22;26861;51.824;4.682;2023-04-16T18:24:06;17.70;85.10
41116;DHT22;26861;51.824;4.682;2023-04-16T18:26:32;17.70;85.30
41116;DHT22;26861;51.824;4.682;2023-04-16T18:28:57;17.70;85.40
41116;DHT22;26861;51.824;4.682;2023-04-16T18:31:23;17.50;85.30
41116;DHT22;26861;51.824;4.682;2023-04-16T18:36:15;17.60;60.50
41116;DHT22;26861;51.824;4.682;2023-04-16T18:38:41;17.50;85.40
41116;DHT22;26861;51.824;4.682;2023-04-16T18:41:34;17.70;84.50
41116;DHT22;26861;51.824;4.682;2023-04-16T18:51:18;17.10;85.20
41116;DHT22;26861;51.824;4.682;2023-04-16T18:53:44;17.60;85.20
41116;DHT22;26861;51.824;4.682;2023-04-16T18:56:10;17.60;85.20
41116;DHT22;26861;51.824;4.682;2023-04-16T18:58:35;17.40;84.70
41116;DHT22;26861;51.824;4.682;2023-04-16T19:01:02;17.40;84.60
41116;DHT22;26861;51.824;4.682;2023-04-16T19:05:55;17.40;65.50
41116;DHT22;26861;51.824;4.682;2023-04-16T19:08:20;17.50;84.90
41116;DHT22;26861;51.824;4.682;2023-04-16T19:10:49;17.30;84.70
41116;DHT22;26861;51.824;4.682;2023-04-16T19:13:15;17.30;84.70
41116;DHT22;26861;51.824;4.682;2023-04-16T19:15:41;17.60;60.00
41116;DHT22;26861;51.824;4.682;2023-04-16T19:18:07;17.50;84.60
41116;DHT22;26861;51.824;4.682;2023-04-16T19:20:33;17.60;84.90
41116;DHT22;26861;51.824;4.682;2023-04-16T19:25:25;17.10;76.70
41116;DHT22;26861;51.824;4.682;2023-04-16T19:30:17;17.40;84.80
41116;DHT22;26861;51.824;4.682;2023-04-16T19:35:09;17.40;84.90
41116;DHT22;26861;51.824;4.682;2023-04-16T19:40:01;17.30;84.60
41116;DHT22;26861;51.824;4.682;2023-04-16T19:42:26;17.50;85.00
41116;DHT22;26861;51.824;4.682;2023-04-16T19:44:52;17.60;84.90
41116;DHT22;26861;51.824;4.682;2023-04-16T19:47:17;17.20;84.70
41116;DHT22;26861;51.824;4.682;2023-04-16T19:49:44;17.50;85.00
41116;DHT22;26861;51.824;4.682;2023-04-16T19:52:10;17.40;84.90
41116;DHT22;26861;51.824;4.682;2023-04-16T19:54:35;17.30;84.80
41116;DHT22;26861;51.824;4.682;2023-04-16T19:57:02;17.50;85.40
41116;DHT22;26861;51.824;4.682;2023-04-16T19:59:27;17.50;85.50
41116;DHT22;26861;51.824;4.682;2023-04-16T20:01:53;17.30;85.40
41116;DHT22;26861;51.824;4.682;2023-04-16T20:04:19;17.10;85.30
41116;DHT22;26861;51.824;4.682;2023-04-16T20:06:44;17.20;85.00
41116;DHT22;26861;51.824;4.682;2023-04-16T20:09:10;17.50;85.10
41116;DHT22;26861;51.824;4.682;2023-04-16T20:18:56;17.10;84.60
41116;DHT22;26861;51.824;4.682;2023-04-16T20:21:22;17.40;84.70
41116;DHT22;26861;51.824;4.682;2023-04-16T20:23:47;17.40;84.60
41116;DHT22;26861;51.824;4.682;2023-04-16T20:26:16;17.30;84.70
41116;DHT22;26861;51.824;4.682;2023-04-16T20:28:43;16.90;60.90
41116;DHT22;26861;51.824;4.682;2023-04-16T20:31:09;17.30;84.60
41116;DHT22;26861;51.824;4.682;2023-04-16T20:33:35;17.30;84.60
41116;DHT22;26861;51.824;4.682;2023-04-16T20:36:03;17.20;85.00
41116;DHT22;26861;51.824;4.682;2023-04-16T20:38:29;17.20;84.90
41116;DHT22;26861;51.824;4.682;2023-04-16T20:40:57;17.30;84.50
41116;DHT22;26861;51.824;4.682;2023-04-16T20:43:39;17.10;68.30
41116;DHT22;26861;51.824;4.682;2023-04-16T20:46:07;17.30;52.20
41116;DHT22;26861;51.824;4.682;2023-04-16T20:50:59;17.20;84.80
41116;DHT22;26861;51.824;4.682;2023-04-16T20:53:25;17.10;68.30
41116;DHT22;26861;51.824;4.682;2023-04-16T20:58:17;16.90;84.50
41116;DHT22;26861;51.824;4.682;2023-04-16T21:00:42;17.00;84.50
41116;DHT22;26861;51.824;4.682;2023-04-16T21:03:08;17.30;82.00